createdAt,value
2018-10-07T00:00:43.836Z,12.27
2018-10-07T00:03:12.065Z,12.03
2018-10-07T00:05:40.277Z,14.63
2018-10-07T00:08:09.272Z,13.37
2018-10-07T00:10:37.449Z,17.73
2018-10-07T00:13:05.609Z,13.13
2018-10-07T00:15:34.617Z,17.03
2018-10-07T00:18:02.833Z,15.23
2018-10-07T00:20:31.001Z,15.10
2018-10-07T00:22:59.219Z,16.00
2018-10-07T00:25:27.409Z,15.57
2018-10-07T00:27:55.555Z,15.77
2018-10-07T00:30:23.767Z,12.53
2018-10-07T00:32:51.909Z,15.73
2018-10-07T00:35:22.369Z,13.10
2018-10-07T00:37:50.557Z,12.50
2018-10-07T00:40:18.772Z,11.73
2018-10-07T00:42:51.051Z,13.90
2018-10-07T00:45:19.249Z,16.27
2018-10-07T00:47:48.646Z,16.83
2018-10-07T00:50:16.782Z,12.03
2018-10-07T00:52:45.006Z,20.00
2018-10-07T00:55:13.237Z,15.63
2018-10-07T00:57:41.537Z,20.73
2018-10-07T01:00:09.775Z,16.90
2018-10-07T01:02:37.966Z,16.50
2018-10-07T01:05:06.386Z,22.33
2018-10-07T01:07:34.541Z,17.37
2018-10-07T01:10:02.681Z,16.57
2018-10-07T01:12:30.862Z,13.43
2018-10-07T01:14:58.981Z,16.63
2018-10-07T01:17:27.258Z,16.17
2018-10-07T01:19:55.428Z,14.73
2018-10-07T01:22:23.661Z,15.60
2018-10-07T01:24:51.962Z,14.73
2018-10-07T01:27:20.215Z,22.33
2018-10-07T01:29:48.478Z,18.17
2018-10-07T01:32:16.646Z,18.27
2018-10-07T01:34:44.888Z,15.03
2018-10-07T01:37:13.196Z,15.10
2018-10-07T01:39:42.334Z,20.30
2018-10-07T01:42:10.629Z,18.00
2018-10-07T01:44:38.851Z,17.30
2018-10-07T01:47:07.141Z,16.87
2018-10-07T01:49:35.363Z,20.87
2018-10-07T01:52:03.579Z,19.63
2018-10-07T01:54:31.767Z,19.83
2018-10-07T01:56:59.934Z,20.37
2018-10-07T01:59:28.188Z,18.00
2018-10-07T02:01:56.316Z,20.43
2018-10-07T02:04:24.592Z,14.77
2018-10-07T02:06:53.432Z,13.60
2018-10-07T02:09:22.128Z,14.97
2018-10-07T02:11:50.270Z,13.87
2018-10-07T02:14:18.969Z,19.10
2018-10-07T02:16:47.200Z,15.60
2018-10-07T02:19:15.458Z,16.83
2018-10-07T02:21:43.867Z,14.80
2018-10-07T02:24:12.055Z,18.00
2018-10-07T02:26:40.234Z,15.37
2018-10-07T02:29:08.400Z,14.20
2018-10-07T02:31:36.618Z,19.80
2018-10-07T02:34:04.874Z,12.60
2018-10-07T02:36:33.079Z,16.13
2018-10-07T02:39:01.354Z,17.63
2018-10-07T02:41:29.566Z,13.97
2018-10-07T02:43:57.764Z,15.27
2018-10-07T02:46:26.017Z,15.33
2018-10-07T02:48:54.307Z,15.90
2018-10-07T02:51:22.553Z,15.50
2018-10-07T02:53:50.899Z,16.13
2018-10-07T02:56:19.674Z,16.47
2018-10-07T02:58:48.554Z,13.73
2018-10-07T03:01:16.758Z,17.10
2018-10-07T03:03:44.929Z,15.83
2018-10-07T03:06:13.231Z,14.83
2018-10-07T03:08:41.469Z,16.03
2018-10-07T03:11:09.730Z,15.83
2018-10-07T03:13:37.959Z,15.80
2018-10-07T03:16:06.277Z,14.80
2018-10-07T03:18:34.456Z,17.10
2018-10-07T03:21:02.641Z,14.73
2018-10-07T03:23:30.822Z,14.93
2018-10-07T03:25:58.993Z,18.20
2018-10-07T03:28:27.195Z,17.83
2018-10-07T03:30:55.496Z,18.83
2018-10-07T03:33:23.613Z,14.93
2018-10-07T03:35:51.914Z,13.30
2018-10-07T03:38:20.216Z,18.47
2018-10-07T03:40:48.382Z,15.87
2018-10-07T03:43:16.840Z,16.73
2018-10-07T03:45:45.599Z,14.43
2018-10-07T03:48:13.813Z,14.43
2018-10-07T03:50:42.607Z,12.87
2018-10-07T03:53:10.856Z,13.73
2018-10-07T03:55:39.192Z,14.00
2018-10-07T03:58:07.361Z,13.37
2018-10-07T04:00:35.600Z,12.17
2018-10-07T04:03:03.877Z,12.67
2018-10-07T04:05:32.068Z,14.37
2018-10-07T04:08:00.291Z,14.97
2018-10-07T04:10:28.559Z,12.80
2018-10-07T04:12:56.708Z,14.73
2018-10-07T04:15:24.963Z,13.93
2018-10-07T04:17:53.149Z,13.03
2018-10-07T04:20:21.361Z,14.60
2018-10-07T04:22:49.636Z,15.73
2018-10-07T04:25:17.869Z,14.90
2018-10-07T04:27:46.076Z,13.73
2018-10-07T04:30:14.350Z,15.07
2018-10-07T04:32:42.612Z,13.23
2018-10-07T04:35:10.870Z,14.37
2018-10-07T04:37:39.078Z,13.10
2018-10-07T04:40:07.326Z,14.63
2018-10-07T04:42:35.534Z,16.93
2018-10-07T04:45:03.868Z,15.80
2018-10-07T04:47:32.065Z,17.60
2018-10-07T04:50:00.217Z,14.90
2018-10-07T04:52:28.343Z,17.00
2018-10-07T04:54:56.513Z,15.03
2018-10-07T04:57:24.695Z,16.77
2018-10-07T04:59:52.873Z,19.97
2018-10-07T05:02:21.042Z,17.60
2018-10-07T05:04:49.190Z,22.47
2018-10-07T05:07:17.435Z,23.47
2018-10-07T05:09:45.588Z,17.40
2018-10-07T05:12:13.941Z,18.43
2018-10-07T05:14:46.525Z,20.53
2018-10-07T05:17:15.101Z,18.50
2018-10-07T05:19:43.536Z,20.17
2018-10-07T05:22:21.880Z,19.57
2018-10-07T05:24:50.479Z,19.07
2018-10-07T05:27:19.957Z,19.30
2018-10-07T05:32:15.275Z,22.63
2018-10-07T05:34:43.451Z,21.13
2018-10-07T05:37:11.657Z,20.77
2018-10-07T05:39:39.925Z,21.43
2018-10-07T05:42:15.490Z,25.67
2018-10-07T05:44:46.893Z,28.43
2018-10-07T05:47:15.891Z,24.80
2018-10-07T05:49:44.108Z,23.10
2018-10-07T05:52:19.525Z,21.07
2018-10-07T05:54:52.854Z,25.30
2018-10-07T05:57:21.982Z,23.30
2018-10-07T05:59:50.349Z,22.07
2018-10-07T06:02:18.931Z,24.63
2018-10-07T06:04:53.089Z,26.37
2018-10-07T06:07:23.065Z,24.33
2018-10-07T06:09:51.647Z,24.47
2018-10-07T06:12:20.315Z,25.67
2018-10-07T06:15:00.055Z,26.10
2018-10-07T06:17:28.279Z,29.43
2018-10-07T06:19:57.039Z,31.17
2018-10-07T06:22:25.695Z,25.60
2018-10-07T06:24:55.179Z,26.57
2018-10-07T06:27:24.607Z,31.00
2018-10-07T06:29:54.213Z,31.97
2018-10-07T06:32:22.465Z,27.97
2018-10-07T06:34:50.805Z,28.13
2018-10-07T06:37:20.343Z,33.60
2018-10-07T06:39:50.066Z,27.27
2018-10-07T06:42:24.711Z,31.77
2018-10-07T06:44:54.277Z,33.13
2018-10-07T06:47:27.563Z,31.40
2018-10-07T06:49:56.847Z,34.43
2018-10-07T06:52:25.105Z,33.90
2018-10-07T06:54:58.512Z,38.23
2018-10-07T06:57:26.738Z,32.27
2018-10-07T06:59:56.311Z,36.60
2018-10-07T07:02:25.249Z,33.00
2018-10-07T07:04:54.322Z,29.10
2018-10-07T07:07:27.381Z,33.47
2018-10-07T07:09:55.864Z,31.40
2018-10-07T07:12:24.263Z,31.30
2018-10-07T07:15:01.141Z,30.47
2018-10-07T07:17:29.615Z,31.87
2018-10-07T07:19:57.901Z,32.20
2018-10-07T07:22:27.191Z,26.73
2018-10-07T07:24:55.393Z,28.10
2018-10-07T07:27:28.573Z,28.00
2018-10-07T07:29:56.783Z,19.83
2018-10-07T07:32:30.065Z,24.67
2018-10-07T07:34:59.580Z,18.73
2018-10-07T07:37:28.265Z,21.93
2018-10-07T07:39:58.098Z,13.50
2018-10-07T07:42:29.412Z,13.90
2018-10-07T07:44:57.749Z,14.67
2018-10-07T07:47:27.737Z,14.23
2018-10-07T07:49:56.135Z,16.13
2018-10-07T07:52:24.383Z,16.33
2018-10-07T07:54:53.865Z,14.43
2018-10-07T07:57:22.367Z,14.20
2018-10-07T07:59:51.965Z,14.40
2018-10-07T08:02:20.321Z,11.20
2018-10-07T08:04:48.781Z,12.27
2018-10-07T08:07:20.785Z,13.17
2018-10-07T08:09:49.055Z,14.63
2018-10-07T08:12:17.321Z,13.50
2018-10-07T08:14:45.782Z,9.90
2018-10-07T08:17:14.201Z,9.10
2018-10-07T08:19:42.535Z,9.10
2018-10-07T08:22:11.342Z,8.70
2018-10-07T08:24:39.525Z,10.43
2018-10-07T08:27:08.621Z,7.17
2018-10-07T08:29:37.010Z,14.87
2018-10-07T08:32:05.249Z,6.50
2018-10-07T08:34:33.987Z,6.37
2018-10-07T08:37:03.069Z,6.23
2018-10-07T08:39:31.411Z,5.43
2018-10-07T08:41:59.621Z,6.73
2018-10-07T08:44:29.190Z,5.13
2018-10-07T08:46:58.385Z,5.23
2018-10-07T08:49:30.013Z,6.80
2018-10-07T08:51:58.726Z,6.37
2018-10-07T08:54:27.114Z,3.30
2018-10-07T08:56:55.386Z,7.60
2018-10-07T08:59:24.540Z,4.03
2018-10-07T09:01:52.845Z,4.27
2018-10-07T09:04:20.955Z,3.27
2018-10-07T09:06:49.464Z,5.90
2018-10-07T09:09:18.568Z,3.70
2018-10-07T09:11:46.851Z,3.57
2018-10-07T09:14:15.584Z,2.80
2018-10-07T09:16:44.413Z,4.07
2018-10-07T09:19:13.532Z,2.07
2018-10-07T09:21:42.008Z,2.23
2018-10-07T09:24:10.347Z,3.17
2018-10-07T09:26:39.143Z,2.37
2018-10-07T09:29:07.537Z,3.13
2018-10-07T09:31:40.045Z,2.80
2018-10-07T09:34:09.155Z,3.47
2018-10-07T09:36:37.526Z,3.20
2018-10-07T09:39:07.982Z,3.77
2018-10-07T09:41:36.418Z,1.63
2018-10-07T09:44:04.633Z,3.93
2018-10-07T09:46:33.301Z,3.77
2018-10-07T09:49:03.833Z,2.70
2018-10-07T09:51:40.885Z,3.73
2018-10-07T09:54:15.580Z,1.60
2018-10-07T09:56:44.024Z,2.93
2018-10-07T09:59:12.225Z,4.47
2018-10-07T10:01:40.475Z,1.70
2018-10-07T10:04:08.854Z,3.77
2018-10-07T10:06:37.029Z,4.13
2018-10-07T10:09:07.667Z,2.17
2018-10-07T10:11:36.302Z,2.23
2018-10-07T10:14:04.834Z,1.80
2018-10-07T10:19:00.772Z,1.63
2018-10-07T10:21:43.698Z,3.13
2018-10-07T10:25:21.580Z,1.60
2018-10-07T10:27:55.140Z,1.67
2018-10-07T10:30:29.089Z,2.43
2018-10-07T10:33:31.564Z,1.97
2018-10-07T10:36:21.745Z,2.97
2018-10-07T10:39:10.844Z,1.80
2018-10-07T10:41:45.169Z,6.17
2018-10-07T10:44:34.120Z,1.93
2018-10-07T10:47:34.694Z,1.03
2018-10-07T10:50:14.095Z,2.80
2018-10-07T10:53:02.270Z,3.10
2018-10-07T10:56:48.075Z,2.63
2018-10-07T10:59:28.554Z,4.30
2018-10-07T11:04:12.360Z,1.57
2018-10-07T11:06:44.156Z,4.03
2018-10-07T11:09:49.875Z,4.33
2018-10-07T11:12:31.250Z,2.83
2018-10-07T11:16:06.826Z,0.97
2018-10-07T11:20:49.682Z,2.23
2018-10-07T11:23:27.861Z,0.97
2018-10-07T11:27:04.686Z,3.70
2018-10-07T11:29:41.171Z,1.07
2018-10-07T11:33:20.087Z,1.47
2018-10-07T11:36:05.544Z,1.07
2018-10-07T11:39:12.305Z,5.10
2018-10-07T11:41:47.764Z,3.50
2018-10-07T11:44:23.830Z,2.03
2018-10-07T11:48:03.464Z,2.20
2018-10-07T11:50:43.161Z,1.73
2018-10-07T11:53:46.908Z,2.60
2018-10-07T11:56:15.677Z,2.27
2018-10-07T11:58:44.020Z,3.63
2018-10-07T12:01:12.200Z,3.07
2018-10-07T12:03:40.672Z,2.57
2018-10-07T12:06:08.842Z,1.53
2018-10-07T12:08:37.588Z,1.43
2018-10-07T12:11:05.853Z,1.57
2018-10-07T12:13:34.053Z,3.53
2018-10-07T12:16:02.318Z,3.50
2018-10-07T12:18:31.105Z,1.63
2018-10-07T12:20:59.570Z,2.03
2018-10-07T12:23:27.797Z,1.10
2018-10-07T12:25:55.991Z,4.97
2018-10-07T12:28:24.229Z,1.23
2018-10-07T12:30:52.458Z,4.43
2018-10-07T12:33:20.643Z,3.20
2018-10-07T12:35:48.946Z,2.83
2018-10-07T12:38:17.283Z,2.60
2018-10-07T12:40:49.841Z,3.00
2018-10-07T12:43:18.074Z,2.87
2018-10-07T12:45:46.456Z,2.70
2018-10-07T12:48:14.722Z,1.83
2018-10-07T12:50:43.076Z,1.50
2018-10-07T12:53:11.260Z,1.23
2018-10-07T12:55:45.263Z,2.10
2018-10-07T12:58:13.550Z,3.73
2018-10-07T13:00:41.887Z,1.10
2018-10-07T13:03:10.088Z,1.37
2018-10-07T13:05:38.412Z,1.17
2018-10-07T13:08:06.673Z,1.70
2018-10-07T13:10:34.901Z,2.17
2018-10-07T13:13:03.196Z,1.97
2018-10-07T13:15:31.496Z,2.43
2018-10-07T13:17:59.719Z,1.83
2018-10-07T13:20:27.992Z,2.40
2018-10-07T13:22:56.266Z,2.90
2018-10-07T13:25:24.458Z,1.97
2018-10-07T13:27:53.304Z,3.90
2018-10-07T13:30:21.492Z,2.13
2018-10-07T13:32:49.691Z,1.93
2018-10-07T13:35:18.403Z,5.67
2018-10-07T13:37:46.753Z,1.20
2018-10-07T13:40:14.910Z,2.80
2018-10-07T13:42:43.749Z,1.40
2018-10-07T13:45:18.381Z,1.30
2018-10-07T13:47:46.623Z,3.30
2018-10-07T13:50:16.323Z,4.57
2018-10-07T13:52:44.918Z,2.63
2018-10-07T13:55:13.790Z,3.37
2018-10-07T13:57:42.568Z,2.67
2018-10-07T14:00:10.950Z,1.00
2018-10-07T14:02:39.296Z,1.83
2018-10-07T14:05:07.642Z,2.13
2018-10-07T14:07:35.889Z,1.47
2018-10-07T14:10:04.200Z,3.50
2018-10-07T14:12:32.909Z,2.40
2018-10-07T14:15:01.066Z,3.03
2018-10-07T14:17:29.281Z,1.40
2018-10-07T14:19:58.971Z,2.20
2018-10-07T14:22:28.810Z,1.23
2018-10-07T14:24:57.491Z,3.20
2018-10-07T14:27:25.702Z,1.60
2018-10-07T14:29:53.947Z,5.33
2018-10-07T14:32:22.216Z,3.10
2018-10-07T14:34:50.427Z,1.10
2018-10-07T14:37:18.660Z,1.80
2018-10-07T14:39:46.853Z,2.17
2018-10-07T14:42:15.053Z,1.50
2018-10-07T14:44:44.027Z,6.73
2018-10-07T14:49:39.544Z,2.33
2018-10-07T14:52:07.787Z,2.93
2018-10-07T14:54:35.976Z,1.47
2018-10-07T14:57:04.220Z,2.00
2018-10-07T14:59:32.438Z,3.57
2018-10-07T15:02:00.815Z,2.43
2018-10-07T15:04:28.976Z,0.90
2018-10-07T15:06:57.161Z,2.60
2018-10-07T15:09:25.489Z,2.03
2018-10-07T15:11:53.959Z,2.93
2018-10-07T15:14:22.141Z,1.53
2018-10-07T15:16:50.374Z,5.03
2018-10-07T15:19:18.564Z,1.37
2018-10-07T15:21:46.725Z,5.03
2018-10-07T15:24:15.001Z,2.33
2018-10-07T15:26:43.210Z,2.23
2018-10-07T15:29:12.602Z,6.07
2018-10-07T15:31:40.862Z,3.70
2018-10-07T15:34:09.124Z,2.13
2018-10-07T15:36:37.368Z,4.93
2018-10-07T15:39:06.640Z,1.80
2018-10-07T15:41:34.923Z,2.40
2018-10-07T15:44:03.261Z,2.43
2018-10-07T15:46:31.542Z,3.37
2018-10-07T15:48:59.767Z,1.40
2018-10-07T15:51:28.048Z,5.30
2018-10-07T15:53:56.301Z,4.50
2018-10-07T15:56:24.622Z,2.23
2018-10-07T15:58:53.011Z,3.80
2018-10-07T16:01:21.241Z,3.37
2018-10-07T16:03:49.722Z,3.33
2018-10-07T16:06:18.009Z,2.03
2018-10-07T16:08:46.371Z,3.73
2018-10-07T16:11:14.599Z,2.13
2018-10-07T16:13:43.106Z,4.10
2018-10-07T16:16:12.185Z,3.27
2018-10-07T16:18:40.683Z,8.40
2018-10-07T16:21:08.869Z,2.33
2018-10-07T16:23:37.301Z,2.70
2018-10-07T16:26:05.556Z,2.93
2018-10-07T16:28:34.124Z,4.40
2018-10-07T16:31:04.394Z,1.90
2018-10-07T16:33:33.347Z,4.03
2018-10-07T16:36:01.719Z,4.23
2018-10-07T16:38:30.099Z,4.57
2018-10-07T16:41:04.741Z,2.10
2018-10-07T16:43:35.744Z,8.70
2018-10-07T16:46:04.343Z,8.93
2018-10-07T16:48:33.634Z,11.90
2018-10-07T16:51:01.983Z,5.77
2018-10-07T16:53:30.386Z,5.87
2018-10-07T16:55:58.647Z,3.67
2018-10-07T16:58:26.835Z,6.00
2018-10-07T17:00:56.023Z,3.97
2018-10-07T17:03:24.314Z,3.40
2018-10-07T17:05:52.751Z,6.13
2018-10-07T17:08:21.064Z,7.07
2018-10-07T17:10:49.433Z,8.17
2018-10-07T17:13:18.436Z,8.80
2018-10-07T17:15:46.676Z,5.43
2018-10-07T17:18:14.881Z,8.37
2018-10-07T17:20:43.779Z,6.53
2018-10-07T17:23:12.138Z,8.50
2018-10-07T17:25:40.410Z,8.80
2018-10-07T17:28:08.682Z,6.70
2018-10-07T17:30:37.016Z,7.63
2018-10-07T17:33:05.469Z,5.43
2018-10-07T17:35:34.069Z,6.63
2018-10-07T17:38:02.514Z,5.77
2018-10-07T17:40:30.760Z,5.17
2018-10-07T17:42:58.991Z,3.80
2018-10-07T17:45:27.302Z,3.17
2018-10-07T17:47:55.615Z,6.87
2018-10-07T17:50:23.867Z,4.03
2018-10-07T17:52:52.362Z,6.43
2018-10-07T17:55:21.178Z,5.57
2018-10-07T18:00:17.418Z,3.23
2018-10-07T18:02:45.749Z,5.07
2018-10-07T18:05:14.297Z,9.73
2018-10-07T18:07:42.598Z,4.53
2018-10-07T18:10:11.654Z,4.20
2018-10-07T18:12:40.197Z,3.83
2018-10-07T18:15:08.509Z,5.37
2018-10-07T18:17:36.688Z,3.87
2018-10-07T18:20:05.641Z,3.60
2018-10-07T18:22:33.915Z,3.17
2018-10-07T18:25:02.215Z,3.20
2018-10-07T18:27:30.732Z,3.20
2018-10-07T18:29:59.113Z,3.37
2018-10-07T18:32:27.450Z,5.03
2018-10-07T18:34:55.719Z,4.00
2018-10-07T18:37:24.087Z,4.50
2018-10-07T18:39:52.318Z,3.93
2018-10-07T18:42:20.862Z,2.27
2018-10-07T18:44:49.187Z,2.83
2018-10-07T18:47:17.462Z,2.87
2018-10-07T18:49:45.773Z,3.93
2018-10-07T18:52:15.282Z,5.13
2018-10-07T18:54:43.722Z,2.53
2018-10-07T18:57:12.050Z,3.63
2018-10-07T18:59:40.445Z,4.97
2018-10-07T19:02:08.755Z,3.73
2018-10-07T19:04:37.281Z,3.20
2018-10-07T19:07:05.648Z,2.77
2018-10-07T19:09:34.004Z,2.37
2018-10-07T19:12:02.406Z,3.77
2018-10-07T19:14:31.388Z,2.67
2018-10-07T19:17:06.474Z,4.33
2018-10-07T19:19:34.817Z,2.30
2018-10-07T19:22:03.178Z,6.57
2018-10-07T19:24:31.443Z,2.07
2018-10-07T19:29:26.817Z,4.97
2018-10-07T19:31:55.365Z,2.20
2018-10-07T19:34:23.748Z,3.07
2018-10-07T19:36:52.204Z,3.97
2018-10-07T19:39:20.649Z,2.57
2018-10-07T19:41:49.079Z,3.13
2018-10-07T19:44:17.396Z,4.67
2018-10-07T19:46:45.657Z,3.43
2018-10-07T19:49:14.568Z,3.77
2018-10-07T19:51:42.969Z,5.50
2018-10-07T19:54:12.145Z,10.47
2018-10-07T19:56:40.453Z,5.33
2018-10-07T19:59:09.525Z,8.47
2018-10-07T20:01:37.975Z,7.47
2018-10-07T20:04:06.239Z,7.80
2018-10-07T20:06:34.451Z,5.17
2018-10-07T20:09:02.753Z,5.13
2018-10-07T20:11:31.038Z,4.83
2018-10-07T20:13:59.238Z,3.60
2018-10-07T20:16:27.512Z,3.33
2018-10-07T20:18:55.747Z,4.27
2018-10-07T20:21:23.994Z,4.50
2018-10-07T20:23:52.484Z,12.17
2018-10-07T20:26:20.797Z,20.67
2018-10-07T20:28:49.100Z,18.40
2018-10-07T20:31:17.412Z,12.23
2018-10-07T20:33:46.825Z,10.90
2018-10-07T20:36:15.023Z,7.33
2018-10-07T20:38:43.260Z,4.40
2018-10-07T20:41:11.652Z,4.57
2018-10-07T20:43:39.868Z,2.80
2018-10-07T20:46:08.063Z,3.17
2018-10-07T20:48:36.439Z,8.03
2018-10-07T20:51:05.069Z,8.93
2018-10-07T20:53:33.376Z,3.97
2018-10-07T20:56:01.628Z,4.33
2018-10-07T20:58:29.873Z,5.23
2018-10-07T21:00:58.086Z,4.07
2018-10-07T21:03:26.322Z,5.90
2018-10-07T21:05:54.554Z,4.00
2018-10-07T21:08:22.861Z,3.43
2018-10-07T21:10:51.075Z,11.50
2018-10-07T21:13:19.335Z,6.13
2018-10-07T21:15:47.535Z,6.80
2018-10-07T21:18:15.790Z,6.10
2018-10-07T21:20:44.108Z,6.17
2018-10-07T21:23:12.405Z,5.50
2018-10-07T21:25:40.642Z,6.07
2018-10-07T21:28:08.913Z,8.17
2018-10-07T21:30:37.228Z,13.73
2018-10-07T21:33:05.500Z,17.87
2018-10-07T21:35:33.650Z,28.13
2018-10-07T21:38:01.889Z,18.87
2018-10-07T21:40:30.064Z,17.63
2018-10-07T21:42:58.296Z,13.00
2018-10-07T21:45:26.487Z,19.53
2018-10-07T21:47:54.766Z,14.37
2018-10-07T21:50:23.025Z,15.67
2018-10-07T21:52:51.279Z,17.20
2018-10-07T21:55:19.473Z,12.77
2018-10-07T21:57:47.896Z,16.63
2018-10-07T22:00:16.116Z,10.57
2018-10-07T22:02:44.301Z,17.07
2018-10-07T22:05:12.548Z,24.53
2018-10-07T22:07:40.722Z,26.30
2018-10-07T22:10:08.910Z,18.93
2018-10-07T22:12:37.264Z,14.97
2018-10-07T22:15:05.458Z,11.47
2018-10-07T22:17:33.764Z,12.30
2018-10-07T22:20:02.040Z,10.90
2018-10-07T22:22:30.177Z,12.20
2018-10-07T22:24:58.465Z,11.23
2018-10-07T22:27:26.716Z,7.43
2018-10-07T22:29:54.900Z,7.00
2018-10-07T22:32:23.203Z,4.00
2018-10-07T22:34:51.535Z,8.20
2018-10-07T22:37:19.687Z,5.03
2018-10-07T22:39:47.861Z,6.90
2018-10-07T22:42:16.067Z,10.33
2018-10-07T22:44:44.233Z,7.77
2018-10-07T22:47:12.381Z,7.73
2018-10-07T22:49:40.533Z,12.40
2018-10-07T22:52:08.671Z,8.00
2018-10-07T22:54:36.806Z,9.03
2018-10-07T22:57:04.977Z,10.90
2018-10-07T22:59:33.183Z,9.57
2018-10-07T23:02:01.301Z,11.50
2018-10-07T23:04:29.406Z,10.67
2018-10-07T23:06:57.637Z,12.37
2018-10-07T23:09:25.807Z,9.03
2018-10-07T23:11:53.993Z,13.30
2018-10-07T23:14:22.151Z,10.93
2018-10-07T23:16:50.302Z,11.57
2018-10-07T23:19:18.955Z,14.47
2018-10-07T23:21:47.086Z,15.40
2018-10-07T23:24:15.343Z,13.77
2018-10-07T23:26:43.600Z,14.00
2018-10-07T23:29:11.913Z,18.57
2018-10-07T23:31:40.156Z,17.15
2018-10-07T23:34:08.394Z,26.68
2018-10-07T23:36:36.669Z,31.00
2018-10-07T23:39:07.322Z,29.50
2018-10-07T23:41:35.553Z,24.07
2018-10-07T23:44:03.765Z,25.10
2018-10-07T23:46:31.899Z,39.23
2018-10-07T23:49:00.089Z,48.80
2018-10-07T23:51:28.271Z,55.50
2018-10-07T23:53:56.428Z,30.52
2018-10-07T23:56:24.626Z,20.55
2018-10-07T23:58:52.801Z,24.55
